createdAt,value
2023-12-26T00:00:04.961Z,1.7
2023-12-26T00:01:19.254Z,1.3
2023-12-26T00:02:33.547Z,2
2023-12-26T00:03:47.840Z,1.7
2023-12-26T00:05:01.148Z,1.7
2023-12-26T00:06:15.441Z,1.5
2023-12-26T00:07:29.734Z,1.2
2023-12-26T00:08:44.026Z,1.7
2023-12-26T00:09:58.319Z,1.1
2023-12-26T00:11:12.612Z,1.8
2023-12-26T00:12:25.926Z,2.5
2023-12-26T00:13:40.211Z,1
2023-12-26T00:14:54.511Z,1.6
2023-12-26T00:16:08.804Z,2.1
2023-12-26T00:17:23.096Z,1.4
2023-12-26T00:18:37.389Z,1.2
2023-12-26T00:19:51.681Z,1.8
2023-12-26T00:21:05.974Z,1.2
2023-12-26T00:22:20.267Z,1.8
2023-12-26T00:23:34.560Z,1.4
2023-12-26T00:24:48.852Z,2
2023-12-26T00:26:03.145Z,1.9
2023-12-26T00:27:17.437Z,1.4
2023-12-26T00:28:30.746Z,1.3
2023-12-26T00:29:45.039Z,1.6
2023-12-26T00:30:59.331Z,1.1
2023-12-26T00:32:13.624Z,2.5
2023-12-26T00:33:27.917Z,1.3
2023-12-26T00:34:42.210Z,1.5
2023-12-26T00:35:56.502Z,1.2
2023-12-26T00:37:10.795Z,1.5
2023-12-26T00:38:25.087Z,1.3
2023-12-26T00:39:39.380Z,1
2023-12-26T00:40:53.673Z,1.1
2023-12-26T00:42:07.966Z,2.3
2023-12-26T00:43:22.258Z,1.3
2023-12-26T00:44:35.567Z,1.3
2023-12-26T00:45:49.860Z,1.8
2023-12-26T00:47:04.153Z,1.1
2023-12-26T00:48:18.446Z,1
2023-12-26T00:49:32.738Z,1
2023-12-26T00:50:47.031Z,1
2023-12-26T00:52:01.324Z,1
2023-12-26T00:53:15.617Z,3.1
2023-12-26T00:54:29.909Z,1
2023-12-26T00:55:44.202Z,1
2023-12-26T00:56:58.495Z,1.2
2023-12-26T00:58:12.787Z,1.3
2023-12-26T00:59:27.080Z,1
2023-12-26T01:00:40.388Z,1.6
2023-12-26T01:01:54.681Z,1.1
2023-12-26T01:03:08.974Z,2.4
2023-12-26T01:04:23.267Z,0.8
2023-12-26T01:05:37.559Z,1.3
2023-12-26T01:06:51.852Z,1.1
2023-12-26T01:08:06.144Z,1.4
2023-12-26T01:09:20.437Z,1.3
2023-12-26T01:10:34.730Z,2
2023-12-26T01:11:49.022Z,1.3
2023-12-26T01:13:03.315Z,1.9
2023-12-26T01:14:17.608Z,1
2023-12-26T01:15:31.900Z,1.5
2023-12-26T01:16:45.209Z,1
2023-12-26T01:17:59.502Z,1.5
2023-12-26T01:19:13.795Z,1.4
2023-12-26T01:20:28.087Z,1
2023-12-26T01:21:42.380Z,0.8
2023-12-26T01:22:56.672Z,1
2023-12-26T01:24:10.966Z,2.2
2023-12-26T01:25:25.259Z,2.7
2023-12-26T01:26:39.552Z,0.8
2023-12-26T01:27:53.844Z,1.1
2023-12-26T01:29:08.137Z,1.1
2023-12-26T01:30:22.429Z,1.8
2023-12-26T01:31:36.722Z,1.2
2023-12-26T01:32:50.031Z,1.9
2023-12-26T01:34:04.323Z,2
2023-12-26T01:35:18.616Z,1.3
2023-12-26T01:36:32.909Z,0.8
2023-12-26T01:37:47.202Z,1.1
2023-12-26T01:39:01.494Z,1.3
2023-12-26T01:40:15.787Z,0.8
2023-12-26T01:41:30.080Z,1.4
2023-12-26T01:42:44.372Z,1.8
2023-12-26T01:43:58.665Z,1.1
2023-12-26T01:45:12.957Z,1.8
2023-12-26T01:46:27.250Z,1.7
2023-12-26T01:47:41.543Z,1.2
2023-12-26T01:48:54.852Z,1.2
2023-12-26T01:50:09.144Z,1.3
2023-12-26T01:51:23.437Z,1.6
2023-12-26T01:52:37.729Z,2
2023-12-26T01:53:52.022Z,2.5
2023-12-26T01:55:06.315Z,1.9
2023-12-26T01:56:20.607Z,1.6
2023-12-26T01:57:34.900Z,2.1
2023-12-26T01:58:49.193Z,2
2023-12-26T02:00:03.486Z,1.3
2023-12-26T02:01:17.778Z,1.6
2023-12-26T02:02:32.071Z,1.6
2023-12-26T02:03:46.363Z,1.4
2023-12-26T02:04:59.672Z,1.1
2023-12-26T02:06:13.965Z,0.9
2023-12-26T02:07:28.257Z,1.2
2023-12-26T02:08:42.550Z,1.2
2023-12-26T02:09:56.843Z,1.3
2023-12-26T02:11:11.136Z,1.4
2023-12-26T02:12:25.428Z,1.8
2023-12-26T02:13:39.721Z,1.2
2023-12-26T02:14:54.013Z,1
2023-12-26T02:16:08.306Z,1.8
2023-12-26T02:17:22.599Z,0.8
2023-12-26T02:18:36.892Z,3
2023-12-26T02:19:51.184Z,2.6
2023-12-26T02:21:04.493Z,1.3
2023-12-26T02:22:18.785Z,1.4
2023-12-26T02:23:33.078Z,1.6
2023-12-26T02:24:47.371Z,1
2023-12-26T02:26:01.663Z,2
2023-12-26T02:27:15.956Z,1.4
2023-12-26T02:28:30.248Z,1.1
2023-12-26T02:29:44.541Z,1.3
2023-12-26T02:30:58.834Z,1.7
2023-12-26T02:32:13.127Z,1.5
2023-12-26T02:33:27.419Z,2.3
2023-12-26T02:34:41.712Z,1
2023-12-26T02:35:56.004Z,1.2
2023-12-26T02:37:09.313Z,1.4
2023-12-26T02:38:23.606Z,2.5
2023-12-26T02:39:37.899Z,1.3
2023-12-26T02:40:52.192Z,2.1
2023-12-26T02:42:06.484Z,1.4
2023-12-26T02:43:20.777Z,1.3
2023-12-26T02:44:35.070Z,2.1
2023-12-26T02:45:49.363Z,1.1
2023-12-26T02:47:03.656Z,1.6
2023-12-26T02:48:17.948Z,2.2
2023-12-26T02:49:32.241Z,1.2
2023-12-26T02:50:46.534Z,1.5
2023-12-26T02:52:00.826Z,1.4
2023-12-26T02:53:14.135Z,2.9
2023-12-26T02:54:28.428Z,1.6
2023-12-26T02:55:42.720Z,1.7
2023-12-26T02:56:57.013Z,2.1
2023-12-26T02:58:11.306Z,1.2
2023-12-26T02:59:25.598Z,0.8
2023-12-26T03:00:39.891Z,1.9
2023-12-26T03:01:54.184Z,1.4
2023-12-26T03:03:08.476Z,1.8
2023-12-26T03:04:22.769Z,1.3
2023-12-26T03:05:37.062Z,1.6
2023-12-26T03:06:51.354Z,2.6
2023-12-26T03:08:05.647Z,1.6
2023-12-26T03:09:18.956Z,1.9
2023-12-26T03:10:33.248Z,1.4
2023-12-26T03:11:47.541Z,1.4
2023-12-26T03:13:01.834Z,2
2023-12-26T03:14:16.126Z,1.5
2023-12-26T03:15:30.419Z,1.4
2023-12-26T03:16:44.712Z,1
2023-12-26T03:17:59.004Z,2
2023-12-26T03:19:13.297Z,1.8
2023-12-26T03:20:27.589Z,1.1
2023-12-26T03:21:41.882Z,2.2
2023-12-26T03:22:56.175Z,3.5
2023-12-26T03:24:10.468Z,1.4
2023-12-26T03:25:23.776Z,1.6
2023-12-26T03:26:38.069Z,2.6
2023-12-26T03:27:52.362Z,1.3
2023-12-26T03:29:06.654Z,1.5
2023-12-26T03:30:20.947Z,1.6
2023-12-26T03:31:35.239Z,1.8
2023-12-26T03:32:49.532Z,1.3
2023-12-26T03:34:03.825Z,1.4
2023-12-26T03:35:18.117Z,3.6
2023-12-26T03:36:32.410Z,1.7
2023-12-26T03:37:46.703Z,1.4
2023-12-26T03:39:00.995Z,1.3
2023-12-26T03:40:15.288Z,1.4
2023-12-26T03:41:28.597Z,2.3
2023-12-26T03:42:42.889Z,2.1
2023-12-26T03:43:57.172Z,2.5
2023-12-26T03:45:11.475Z,1.5
2023-12-26T03:46:25.768Z,2.9
2023-12-26T03:47:40.060Z,2.6
2023-12-26T03:48:54.353Z,2.3
2023-12-26T03:50:08.645Z,2
2023-12-26T03:51:22.938Z,1.5
2023-12-26T03:52:37.231Z,3.1
2023-12-26T03:53:51.523Z,2.5
2023-12-26T03:55:05.816Z,1.5
2023-12-26T03:56:20.109Z,1.7
2023-12-26T03:57:33.417Z,3.5
2023-12-26T03:58:47.710Z,2.2
2023-12-26T04:00:02.003Z,1.8
2023-12-26T04:01:16.295Z,2.7
2023-12-26T04:02:30.588Z,1.4
2023-12-26T04:03:44.881Z,2.2
2023-12-26T04:04:59.173Z,1.3
2023-12-26T04:06:13.466Z,2.1
2023-12-26T04:07:27.759Z,1
2023-12-26T04:08:42.051Z,1.3
2023-12-26T04:09:56.344Z,2.6
2023-12-26T04:11:10.636Z,1.4
2023-12-26T04:12:24.929Z,1.6
2023-12-26T04:13:38.238Z,1
2023-12-26T04:14:52.530Z,1
2023-12-26T04:16:06.823Z,2.7
2023-12-26T04:17:21.116Z,0.8
2023-12-26T04:18:35.408Z,1
2023-12-26T04:19:49.701Z,1.8
2023-12-26T04:21:03.015Z,1
2023-12-26T04:22:17.307Z,1.6
2023-12-26T04:23:31.600Z,2.4
2023-12-26T04:24:45.892Z,0.9
2023-12-26T04:26:00.185Z,0.9
2023-12-26T04:27:14.478Z,1
2023-12-26T04:28:28.771Z,1
2023-12-26T04:29:43.063Z,2.4
2023-12-26T04:30:57.356Z,1.6
2023-12-26T04:32:11.649Z,1.1
2023-12-26T04:33:25.942Z,0.8
2023-12-26T04:34:40.234Z,0.8
2023-12-26T04:35:54.527Z,1.3
2023-12-26T04:37:07.836Z,0.8
2023-12-26T04:38:22.128Z,2.8
2023-12-26T04:39:36.421Z,1
2023-12-26T04:40:50.714Z,1.3
2023-12-26T04:42:05.006Z,1.1
2023-12-26T04:43:19.299Z,1.2
2023-12-26T04:44:33.591Z,0.9
2023-12-26T04:45:47.884Z,0.9
2023-12-26T04:47:02.176Z,1.6
2023-12-26T04:48:16.469Z,0.7
2023-12-26T04:49:30.762Z,2.1
2023-12-26T04:50:45.055Z,1
2023-12-26T04:51:59.347Z,0.7
2023-12-26T04:53:12.656Z,0.8
2023-12-26T04:54:26.949Z,1.2
2023-12-26T04:55:41.241Z,1.2
2023-12-26T04:56:55.534Z,1.8
2023-12-26T04:58:09.826Z,0.9
2023-12-26T04:59:24.119Z,0.8
2023-12-26T05:00:38.412Z,0.7
2023-12-26T05:01:52.705Z,1.8
2023-12-26T05:03:06.997Z,0.7
2023-12-26T05:04:21.290Z,0.9
2023-12-26T05:05:35.582Z,0.9
2023-12-26T05:06:49.875Z,0.7
2023-12-26T05:08:04.168Z,1.4
2023-12-26T05:09:17.476Z,1.1
2023-12-26T05:10:31.769Z,0.9
2023-12-26T05:11:46.062Z,0.8
2023-12-26T05:13:00.355Z,0.9
2023-12-26T05:14:14.647Z,0.7
2023-12-26T05:15:28.940Z,2
2023-12-26T05:16:43.232Z,0.9
2023-12-26T05:17:57.525Z,0.7
2023-12-26T05:19:11.818Z,1.2
2023-12-26T05:20:26.110Z,1.1
2023-12-26T05:21:40.403Z,1.4
2023-12-26T05:22:54.696Z,0.9
2023-12-26T05:24:08.988Z,0.9
2023-12-26T05:25:22.297Z,1.2
2023-12-26T05:26:36.590Z,0.7
2023-12-26T05:27:50.882Z,1.2
2023-12-26T05:29:05.175Z,0.7
2023-12-26T05:30:19.468Z,0.9
2023-12-26T05:31:33.760Z,0.9
2023-12-26T05:32:48.039Z,0.7
2023-12-26T05:34:02.348Z,0.8
2023-12-26T05:35:16.640Z,1.9
2023-12-26T05:36:30.933Z,0.8
2023-12-26T05:37:45.226Z,0.7
2023-12-26T05:38:59.518Z,0.8
2023-12-26T05:40:13.811Z,1.4
2023-12-26T05:41:27.120Z,1.1
2023-12-26T05:42:41.412Z,1.1
2023-12-26T05:43:55.705Z,0.8
2023-12-26T05:45:09.998Z,1.5
2023-12-26T05:46:24.290Z,1
2023-12-26T05:47:38.583Z,1.1
2023-12-26T05:48:52.876Z,0.6
2023-12-26T05:50:07.168Z,0.8
2023-12-26T05:51:21.461Z,0.8
2023-12-26T05:52:35.753Z,0.7
2023-12-26T05:53:50.046Z,0.8
2023-12-26T05:55:04.339Z,1.3
2023-12-26T05:56:18.632Z,0.7
2023-12-26T05:57:31.940Z,2.4
2023-12-26T05:58:46.233Z,0.8
2023-12-26T06:00:00.526Z,0.7
2023-12-26T06:01:14.818Z,0.8
2023-12-26T06:02:29.111Z,2.7
2023-12-26T06:03:43.404Z,0.7
2023-12-26T06:04:57.696Z,0.8
2023-12-26T06:06:11.989Z,1
2023-12-26T06:07:26.282Z,0.9
2023-12-26T06:08:40.574Z,0.9
2023-12-26T06:09:54.867Z,1
2023-12-26T06:11:09.160Z,1.3
2023-12-26T06:12:23.452Z,1
2023-12-26T06:13:36.761Z,0.9
2023-12-26T06:14:51.054Z,0.7
2023-12-26T06:16:05.347Z,0.7
2023-12-26T06:17:19.639Z,1.9
2023-12-26T06:18:33.932Z,0.7
2023-12-26T06:19:48.224Z,1.1
2023-12-26T06:21:02.517Z,1
2023-12-26T06:22:16.810Z,0.8
2023-12-26T06:23:31.102Z,0.7
2023-12-26T06:24:45.395Z,0.8
2023-12-26T06:25:59.688Z,0.8
2023-12-26T06:27:13.980Z,0.8
2023-12-26T06:28:28.273Z,2.6
2023-12-26T06:29:41.582Z,0.9
2023-12-26T06:30:55.874Z,0.7
2023-12-26T06:32:10.167Z,0.9
2023-12-26T06:33:24.460Z,1.1
2023-12-26T06:34:38.752Z,0.7
2023-12-26T06:35:53.045Z,1
2023-12-26T06:37:07.338Z,1.9
2023-12-26T06:38:21.630Z,0.8
2023-12-26T06:39:35.923Z,0.8
2023-12-26T06:40:50.216Z,0.7
2023-12-26T06:42:04.509Z,0.7
2023-12-26T06:43:18.747Z,0.9
2023-12-26T06:44:33.040Z,1.1
2023-12-26T06:45:46.306Z,0.8
2023-12-26T06:47:00.545Z,1
2023-12-26T06:48:14.838Z,1
2023-12-26T06:49:29.088Z,0.8
2023-12-26T06:50:43.326Z,2.2
2023-12-26T06:51:57.565Z,0.8
2023-12-26T06:53:11.804Z,0.8
2023-12-26T06:54:26.042Z,1.6
2023-12-26T06:55:40.281Z,1.7
2023-12-26T06:56:54.520Z,0.8
2023-12-26T06:58:08.759Z,1.1
2023-12-26T06:59:22.997Z,1
2023-12-26T07:00:37.237Z,0.7
2023-12-26T07:01:50.492Z,1.8
2023-12-26T07:03:04.731Z,0.8
2023-12-26T07:04:18.969Z,1.4
2023-12-26T07:05:33.208Z,2.1
2023-12-26T07:06:47.447Z,1.2
2023-12-26T07:08:01.685Z,1
2023-12-26T07:09:15.924Z,1
2023-12-26T07:10:30.163Z,1
2023-12-26T07:11:44.402Z,0.7
2023-12-26T07:12:58.640Z,1.4
2023-12-26T07:14:12.879Z,0.8
2023-12-26T07:15:27.118Z,0.7
2023-12-26T07:16:41.356Z,1
2023-12-26T07:17:54.611Z,3.1
2023-12-26T07:19:08.850Z,0.8
2023-12-26T07:20:23.089Z,1
2023-12-26T07:21:37.327Z,0.8
2023-12-26T07:22:51.566Z,1.1
2023-12-26T07:24:05.805Z,2.5
2023-12-26T07:25:20.043Z,3
2023-12-26T07:26:34.282Z,1.7
2023-12-26T07:27:48.520Z,1.2
2023-12-26T07:29:02.759Z,2.2
2023-12-26T07:30:16.998Z,1.2
2023-12-26T07:31:31.237Z,2.6
2023-12-26T07:32:45.475Z,2.2
2023-12-26T07:33:58.730Z,2.8
2023-12-26T07:35:12.969Z,2.8
2023-12-26T07:36:27.207Z,1.3
2023-12-26T07:37:41.446Z,1.3
2023-12-26T07:38:55.685Z,1.8
2023-12-26T07:40:09.923Z,1
2023-12-26T07:41:24.162Z,1.8
2023-12-26T07:42:38.401Z,1.1
2023-12-26T07:43:52.639Z,1.6
2023-12-26T07:45:06.878Z,0.8
2023-12-26T07:46:21.117Z,0.8
2023-12-26T07:47:35.355Z,1.8
2023-12-26T07:48:49.594Z,1.6
2023-12-26T07:50:02.849Z,0.9
2023-12-26T07:51:17.087Z,1.6
2023-12-26T07:52:31.326Z,3.1
2023-12-26T07:53:45.565Z,1.2
2023-12-26T07:54:59.804Z,1.3
2023-12-26T07:56:14.042Z,1.7
2023-12-26T07:57:28.281Z,1.1
2023-12-26T07:58:42.520Z,1.9
2023-12-26T07:59:56.758Z,1.1
2023-12-26T08:01:10.997Z,1.9
2023-12-26T08:02:25.236Z,1.1
2023-12-26T08:03:39.475Z,3
2023-12-26T08:04:53.713Z,1
2023-12-26T08:06:06.968Z,2
2023-12-26T08:07:21.207Z,2.1
2023-12-26T08:08:35.445Z,1.7
2023-12-26T08:09:49.684Z,2.7
2023-12-26T08:11:03.923Z,2.8
2023-12-26T08:12:18.161Z,1.5
2023-12-26T08:13:32.400Z,2
2023-12-26T08:14:46.639Z,1.1
2023-12-26T08:16:00.878Z,3.5
2023-12-26T08:17:15.116Z,0.9
2023-12-26T08:18:29.355Z,1.6
2023-12-26T08:19:43.594Z,1.4
2023-12-26T08:20:57.832Z,2.6
2023-12-26T08:22:11.087Z,1.3
2023-12-26T08:23:25.326Z,1.8
2023-12-26T08:24:39.565Z,1.9
2023-12-26T08:25:53.804Z,1.1
2023-12-26T08:27:08.042Z,1.1
2023-12-26T08:28:22.281Z,1.1
2023-12-26T08:29:35.541Z,2.8
2023-12-26T08:30:49.780Z,2.7
2023-12-26T08:32:04.018Z,1.5
2023-12-26T08:33:18.257Z,1.7
2023-12-26T08:34:32.496Z,1.5
2023-12-26T08:35:46.735Z,2.7
2023-12-26T08:37:00.973Z,1.6
2023-12-26T08:38:15.212Z,3.2
2023-12-26T08:39:29.450Z,2.7
2023-12-26T08:40:43.689Z,1.3
2023-12-26T08:41:57.928Z,1.5
2023-12-26T08:43:12.166Z,2.5
2023-12-26T08:44:26.405Z,2.6
2023-12-26T08:45:39.660Z,1.6
2023-12-26T08:46:53.899Z,2.5
2023-12-26T08:48:08.137Z,1.2
2023-12-26T08:49:22.376Z,2.4
2023-12-26T08:50:36.615Z,2.3
2023-12-26T08:51:50.853Z,1.5
2023-12-26T08:53:05.092Z,1.2
2023-12-26T08:54:19.331Z,2.3
2023-12-26T08:55:33.569Z,2.8
2023-12-26T08:56:47.808Z,1.6
2023-12-26T08:58:02.047Z,1.4
2023-12-26T08:59:16.286Z,1.3
2023-12-26T09:00:30.525Z,2.6
2023-12-26T09:01:43.780Z,2.1
2023-12-26T09:02:58.019Z,8.1
2023-12-26T09:04:12.257Z,11.6
2023-12-26T09:05:26.496Z,9.7
2023-12-26T09:06:40.735Z,4
2023-12-26T09:07:54.974Z,2.7
2023-12-26T09:09:09.212Z,2
2023-12-26T09:10:23.451Z,2
2023-12-26T09:11:37.689Z,1.5
2023-12-26T09:12:51.928Z,2.2
2023-12-26T09:14:06.167Z,3.6
2023-12-26T09:15:20.405Z,2.6
2023-12-26T09:16:34.644Z,3.1
2023-12-26T09:17:47.899Z,2.6
2023-12-26T09:19:02.138Z,1.6
2023-12-26T09:20:16.377Z,2.2
2023-12-26T09:21:30.615Z,3.1
2023-12-26T09:22:44.854Z,3.5
2023-12-26T09:23:59.092Z,3.7
2023-12-26T09:25:13.331Z,2.4
2023-12-26T09:26:27.570Z,3.7
2023-12-26T09:27:41.808Z,3.4
2023-12-26T09:28:56.047Z,4.1
2023-12-26T09:30:10.286Z,2.7
2023-12-26T09:31:24.525Z,3.6
2023-12-26T09:32:38.763Z,2.8
2023-12-26T09:33:52.018Z,3
2023-12-26T09:35:06.257Z,1.9
2023-12-26T09:36:20.496Z,3.1
2023-12-26T09:37:34.734Z,3.3
2023-12-26T09:38:48.973Z,2.4
2023-12-26T09:40:03.212Z,2.2
2023-12-26T09:41:17.450Z,2.6
2023-12-26T09:42:31.689Z,2.2
2023-12-26T09:43:45.928Z,3.4
2023-12-26T09:45:00.166Z,2.2
2023-12-26T09:46:14.405Z,2.5
2023-12-26T09:47:28.644Z,3.1
2023-12-26T09:48:42.882Z,2.8
2023-12-26T09:49:56.137Z,2.6
2023-12-26T09:51:10.376Z,2.7
2023-12-26T09:52:24.615Z,3.4
2023-12-26T09:53:38.854Z,2.1
2023-12-26T09:54:53.092Z,3.9
2023-12-26T09:56:07.331Z,2.6
2023-12-26T09:57:21.570Z,1.9
2023-12-26T09:58:35.808Z,2.3
2023-12-26T09:59:50.047Z,5.3
2023-12-26T10:01:04.286Z,1.8
2023-12-26T10:02:18.525Z,3.5
2023-12-26T10:03:32.763Z,2.3
2023-12-26T10:04:47.002Z,2.8
2023-12-26T10:06:00.257Z,4.5
2023-12-26T10:07:14.496Z,4.6
2023-12-26T10:08:28.734Z,4.8
2023-12-26T10:09:42.973Z,2.9
2023-12-26T10:10:57.212Z,4.5
2023-12-26T10:12:11.451Z,3.5
2023-12-26T10:13:25.689Z,4.8
2023-12-26T10:14:39.928Z,3.4
2023-12-26T10:15:54.167Z,4.9
2023-12-26T10:17:08.405Z,3.5
2023-12-26T10:18:22.644Z,3.7
2023-12-26T10:19:36.883Z,4.3
2023-12-26T10:20:51.121Z,6.2
2023-12-26T10:22:04.376Z,2.9
2023-12-26T10:23:18.615Z,3.9
2023-12-26T10:24:32.854Z,4.8
2023-12-26T10:25:47.093Z,3.5
2023-12-26T10:27:01.331Z,4
2023-12-26T10:28:15.570Z,5.3
2023-12-26T10:29:29.809Z,5.1
2023-12-26T10:30:44.047Z,4.4
2023-12-26T10:31:58.286Z,7.2
2023-12-26T10:33:12.525Z,5.9
2023-12-26T10:34:26.764Z,6.3
2023-12-26T10:35:41.003Z,5.7
2023-12-26T10:36:55.242Z,5.3
2023-12-26T10:38:08.497Z,7.8
2023-12-26T10:39:22.736Z,6.7
2023-12-26T10:40:36.974Z,7.9
2023-12-26T10:41:51.213Z,5.5
2023-12-26T10:43:05.452Z,4.8
2023-12-26T10:44:19.691Z,5
2023-12-26T10:45:33.929Z,2.5
2023-12-26T10:46:48.168Z,4.3
2023-12-26T10:48:02.407Z,2.7
2023-12-26T10:49:16.645Z,4.4
2023-12-26T10:50:30.884Z,3.4
2023-12-26T10:51:45.123Z,5.3
2023-12-26T10:52:59.361Z,3.8
2023-12-26T10:54:12.616Z,2.3
2023-12-26T10:55:26.855Z,2.9
2023-12-26T10:56:41.094Z,2.8
2023-12-26T10:57:55.333Z,2.8
2023-12-26T10:59:09.572Z,2.8
2023-12-26T11:00:23.811Z,3.3
2023-12-26T11:01:38.050Z,3.2
2023-12-26T11:02:52.288Z,5
2023-12-26T11:04:06.527Z,3.5
2023-12-26T11:05:20.766Z,3.4
2023-12-26T11:06:35.005Z,2.7
2023-12-26T11:07:49.244Z,4.2
2023-12-26T11:09:03.482Z,4.9
2023-12-26T11:10:16.737Z,5.1
2023-12-26T11:11:30.976Z,4.5
2023-12-26T11:12:45.214Z,3.5
2023-12-26T11:13:59.443Z,2.5
2023-12-26T11:15:13.692Z,3.7
2023-12-26T11:16:27.931Z,4
2023-12-26T11:17:42.169Z,3.5
2023-12-26T11:18:56.408Z,3.8
2023-12-26T11:20:10.647Z,5.2
2023-12-26T11:21:24.867Z,4.7
2023-12-26T11:22:39.124Z,6.2
2023-12-26T11:23:53.363Z,5.6
2023-12-26T11:25:07.584Z,6.6
2023-12-26T11:26:20.856Z,7.8
2023-12-26T11:27:35.095Z,4.3
2023-12-26T11:30:03.573Z,2.6
2023-12-26T11:31:17.811Z,5.3
2023-12-26T11:32:32.050Z,2.7
2023-12-26T11:33:46.288Z,3.9
2023-12-26T11:35:00.518Z,2.3
2023-12-26T11:37:29.005Z,2.5
2023-12-26T11:38:43.243Z,2.4
2023-12-26T11:39:57.482Z,2.8
2023-12-26T11:41:11.721Z,3.6
2023-12-26T11:42:24.975Z,3.5
2023-12-26T11:43:39.214Z,2.3
2023-12-26T11:44:53.453Z,5.2
2023-12-26T11:46:07.691Z,5.1
2023-12-26T11:47:21.930Z,5.2
2023-12-26T11:48:36.169Z,3.1
2023-12-26T11:49:50.407Z,3.7
2023-12-26T11:51:04.643Z,2.8
2023-12-26T11:52:18.886Z,3.9
2023-12-26T11:53:33.124Z,4.4
2023-12-26T11:54:47.363Z,4.3
2023-12-26T11:56:01.601Z,3
2023-12-26T11:57:15.840Z,3.5
2023-12-26T11:58:29.095Z,5
2023-12-26T11:59:43.334Z,4.4
2023-12-26T12:00:57.572Z,4.5
2023-12-26T12:02:11.811Z,5
2023-12-26T12:03:26.050Z,4.8
2023-12-26T12:04:40.288Z,3.4
2023-12-26T12:05:54.527Z,2.6
2023-12-26T12:07:08.765Z,4.8
2023-12-26T12:08:23.004Z,2.5
2023-12-26T12:09:37.243Z,2.9
2023-12-26T12:10:51.481Z,3.1
2023-12-26T12:12:05.720Z,4
2023-12-26T12:13:19.959Z,3.5
2023-12-26T12:14:33.213Z,3.6
2023-12-26T12:15:47.452Z,4.1
2023-12-26T12:17:01.691Z,3.4
2023-12-26T12:18:15.929Z,3.5
2023-12-26T12:19:30.168Z,3.5
2023-12-26T12:20:44.407Z,3.2
2023-12-26T12:21:58.645Z,4.1
2023-12-26T12:23:12.884Z,4.9
2023-12-26T12:24:27.123Z,3.6
2023-12-26T12:25:41.355Z,5.7
2023-12-26T12:26:55.601Z,4
2023-12-26T12:28:09.839Z,3.1
2023-12-26T12:29:24.078Z,4.2
2023-12-26T12:30:37.333Z,4.1
2023-12-26T12:31:51.572Z,4.5
2023-12-26T12:33:05.810Z,5.2
2023-12-26T12:34:20.049Z,5.5
2023-12-26T12:35:34.287Z,6.8
2023-12-26T12:36:48.526Z,6.7
2023-12-26T12:38:01.786Z,4.1
2023-12-26T12:39:16.025Z,5.1
2023-12-26T12:40:30.263Z,4.8
2023-12-26T12:41:44.502Z,3.8
2023-12-26T12:42:58.741Z,6.6
2023-12-26T12:44:12.979Z,5.7
2023-12-26T12:45:27.218Z,9.4
2023-12-26T12:46:41.457Z,7.9
2023-12-26T12:47:55.695Z,4.8
2023-12-26T12:49:09.934Z,4.2
2023-12-26T12:50:24.172Z,9.7
2023-12-26T12:51:38.411Z,5.6
2023-12-26T12:52:52.650Z,8.3
2023-12-26T12:54:05.905Z,7.4
2023-12-26T12:55:20.143Z,6.5
2023-12-26T12:56:34.382Z,6.4
2023-12-26T12:57:48.621Z,5.3
2023-12-26T12:59:02.859Z,8.3
2023-12-26T13:00:17.098Z,7.8
2023-12-26T13:01:31.336Z,4.6
2023-12-26T13:02:45.575Z,5.5
2023-12-26T13:03:59.814Z,7.2
2023-12-26T13:05:14.053Z,7.8
2023-12-26T13:06:28.291Z,9.4
2023-12-26T13:07:42.530Z,8.4
2023-12-26T13:08:56.768Z,7
2023-12-26T13:10:10.023Z,7.4
2023-12-26T13:11:24.262Z,8
2023-12-26T13:12:38.500Z,6.1
2023-12-26T13:13:52.739Z,7.4
2023-12-26T13:15:06.978Z,6.5
2023-12-26T13:16:21.217Z,8.4
2023-12-26T13:17:35.455Z,5.2
2023-12-26T13:18:49.694Z,8.4
2023-12-26T13:20:03.933Z,7.7
2023-12-26T13:21:18.171Z,6.9
2023-12-26T13:22:32.410Z,7.9
2023-12-26T13:23:46.648Z,8.5
2023-12-26T13:25:00.887Z,8.9
2023-12-26T13:26:14.142Z,7
2023-12-26T13:27:28.381Z,8.1
2023-12-26T13:28:42.619Z,7.6
2023-12-26T13:29:56.858Z,8
2023-12-26T13:31:11.097Z,5.6
2023-12-26T13:32:25.335Z,7.2
2023-12-26T13:33:39.574Z,10.5
2023-12-26T13:34:53.813Z,8
2023-12-26T13:36:08.052Z,7.4
2023-12-26T13:37:22.290Z,7.2
2023-12-26T13:38:36.529Z,6.9
2023-12-26T13:39:50.768Z,7.5
2023-12-26T13:41:05.006Z,8.4
2023-12-26T13:42:18.261Z,5.5
2023-12-26T13:43:32.500Z,5.9
2023-12-26T13:44:46.738Z,6.6
2023-12-26T13:46:00.977Z,7.2
2023-12-26T13:47:15.216Z,6.5
2023-12-26T13:48:29.455Z,8.1
2023-12-26T13:49:43.693Z,7.8
2023-12-26T13:50:57.933Z,6
2023-12-26T13:52:12.171Z,7.4
2023-12-26T13:53:26.410Z,7.8
2023-12-26T13:54:40.648Z,8.6
2023-12-26T13:55:54.887Z,5.3
2023-12-26T13:57:09.126Z,9.1
2023-12-26T13:58:22.381Z,6.3
2023-12-26T13:59:36.620Z,8.5
2023-12-26T14:00:50.858Z,10.7
2023-12-26T14:02:05.097Z,8.9
2023-12-26T14:03:19.336Z,7.4
2023-12-26T14:04:33.574Z,7.3
2023-12-26T14:05:47.813Z,8.2
2023-12-26T14:07:02.052Z,7
2023-12-26T14:08:16.291Z,8
2023-12-26T14:09:30.529Z,8.1
2023-12-26T14:10:44.768Z,9.4
2023-12-26T14:11:59.007Z,8.3
2023-12-26T14:13:13.245Z,6.9
2023-12-26T14:14:26.500Z,6.8
2023-12-26T14:15:40.739Z,7.4
2023-12-26T14:16:54.978Z,6.6
2023-12-26T14:18:09.216Z,6.6
2023-12-26T14:19:23.455Z,7.5
2023-12-26T14:20:37.694Z,7.8
2023-12-26T14:21:51.933Z,7.6
2023-12-26T14:23:06.172Z,11.8
2023-12-26T14:24:20.411Z,10.2
2023-12-26T14:25:34.650Z,7.2
2023-12-26T14:26:48.889Z,10.7
2023-12-26T14:28:03.127Z,10.5
2023-12-26T14:29:17.366Z,4.4
2023-12-26T14:30:30.621Z,8.4
2023-12-26T14:31:44.860Z,9
2023-12-26T14:32:59.099Z,8.6
2023-12-26T14:34:13.337Z,8.5
2023-12-26T14:35:27.559Z,6.6
2023-12-26T14:36:41.815Z,8.5
2023-12-26T14:37:56.054Z,9.6
2023-12-26T14:39:10.293Z,7.1
2023-12-26T14:40:24.532Z,9.7
2023-12-26T14:41:38.770Z,8.2
2023-12-26T14:42:53.009Z,7
2023-12-26T14:44:07.248Z,9.1
2023-12-26T14:45:21.487Z,8.4
2023-12-26T14:46:34.742Z,9.4
2023-12-26T14:47:48.980Z,10.6
2023-12-26T14:49:03.219Z,11.4
2023-12-26T14:50:17.458Z,9.1
2023-12-26T14:51:31.697Z,6.2
2023-12-26T14:52:45.936Z,9.6
2023-12-26T14:54:00.175Z,8.3
2023-12-26T14:55:14.413Z,8
2023-12-26T14:56:28.652Z,7
2023-12-26T14:57:42.892Z,10.2
2023-12-26T14:58:57.131Z,6.5
2023-12-26T15:00:11.370Z,8.2
2023-12-26T15:01:25.609Z,6.6
2023-12-26T15:02:38.864Z,5.7
2023-12-26T15:03:53.102Z,8.4
2023-12-26T15:05:07.341Z,8.2
2023-12-26T15:06:21.580Z,7
2023-12-26T15:07:35.819Z,7.8
2023-12-26T15:08:50.057Z,7.8
2023-12-26T15:10:04.296Z,7.1
2023-12-26T15:11:18.535Z,6.6
2023-12-26T15:12:32.774Z,7.1
2023-12-26T15:13:47.013Z,7.8
2023-12-26T15:15:01.252Z,8.2
2023-12-26T15:16:15.490Z,7
2023-12-26T15:17:29.729Z,6.8
2023-12-26T15:18:42.984Z,6.4
2023-12-26T15:19:57.223Z,8.5
2023-12-26T15:21:11.461Z,8.8
2023-12-26T15:22:25.700Z,6.2
2023-12-26T15:23:39.939Z,10.2
2023-12-26T15:24:54.178Z,9.9
2023-12-26T15:26:08.417Z,9.1
2023-12-26T15:27:22.655Z,11.2
2023-12-26T15:28:36.894Z,9.7
2023-12-26T15:29:51.133Z,6.5
2023-12-26T15:31:05.371Z,9.3
2023-12-26T15:32:19.610Z,9.6
2023-12-26T15:33:33.849Z,8
2023-12-26T15:34:47.104Z,6.6
2023-12-26T15:36:01.342Z,6.3
2023-12-26T15:37:15.581Z,7.3
2023-12-26T15:38:29.819Z,7.5
2023-12-26T15:39:44.058Z,6.8
2023-12-26T15:40:58.297Z,6.9
2023-12-26T15:42:12.535Z,7.7
2023-12-26T15:43:26.828Z,8.2
2023-12-26T15:44:41.121Z,10.7
2023-12-26T15:45:55.415Z,15.4
2023-12-26T15:47:09.707Z,12.5
2023-12-26T15:48:24.000Z,13.2
2023-12-26T15:49:38.293Z,12
2023-12-26T15:50:51.601Z,8.4
2023-12-26T15:52:05.894Z,7.4
2023-12-26T15:53:20.187Z,7.7
2023-12-26T15:54:34.479Z,7.3
2023-12-26T15:55:48.772Z,9.2
2023-12-26T15:57:03.065Z,8.4
2023-12-26T15:58:17.357Z,6.5
2023-12-26T15:59:31.650Z,8.1
2023-12-26T16:00:45.942Z,6
2023-12-26T16:02:00.235Z,6.9
2023-12-26T16:03:14.528Z,5.4
2023-12-26T16:04:28.820Z,6.3
2023-12-26T16:05:43.113Z,8.7
2023-12-26T16:06:56.422Z,9.1
2023-12-26T16:08:10.715Z,7.7
2023-12-26T16:09:25.007Z,7.3
2023-12-26T16:10:39.300Z,7.7
2023-12-26T16:11:53.592Z,7.1
2023-12-26T16:13:07.885Z,7.2
2023-12-26T16:14:22.178Z,8.2
2023-12-26T16:15:36.470Z,7.4
2023-12-26T16:16:50.763Z,7.6
2023-12-26T16:18:05.056Z,11.1
2023-12-26T16:19:19.349Z,10.2
2023-12-26T16:20:33.641Z,8.2
2023-12-26T16:21:47.934Z,8.2
2023-12-26T16:23:01.243Z,8.8
2023-12-26T16:24:15.535Z,9.8
2023-12-26T16:25:29.828Z,6.5
2023-12-26T16:26:44.120Z,9.8
2023-12-26T16:27:58.413Z,5.4
2023-12-26T16:29:12.706Z,6
2023-12-26T16:30:26.998Z,8.8
2023-12-26T16:31:41.291Z,7.3
2023-12-26T16:32:55.583Z,7.2
2023-12-26T16:34:09.876Z,8.1
2023-12-26T16:35:24.169Z,7.8
2023-12-26T16:36:38.461Z,6.7
2023-12-26T16:37:52.754Z,7.1
2023-12-26T16:39:06.063Z,7.1
2023-12-26T16:40:20.355Z,7.9
2023-12-26T16:41:34.648Z,6.2
2023-12-26T16:42:48.941Z,6.8
2023-12-26T16:44:03.233Z,7.3
2023-12-26T16:45:17.526Z,6.3
2023-12-26T16:46:30.840Z,6.7
2023-12-26T16:47:45.133Z,8.8
2023-12-26T16:48:59.425Z,8.7
2023-12-26T16:50:13.718Z,10.7
2023-12-26T16:51:28.011Z,7.3
2023-12-26T16:52:42.303Z,9.2
2023-12-26T16:53:56.596Z,10.7
2023-12-26T16:55:10.889Z,13.3
2023-12-26T16:56:25.181Z,13.1
2023-12-26T16:57:39.474Z,12.2
2023-12-26T16:58:53.767Z,13
2023-12-26T17:00:08.060Z,11.1
2023-12-26T17:01:22.352Z,12
2023-12-26T17:02:35.661Z,11.3
2023-12-26T17:03:49.955Z,11.2
2023-12-26T17:05:04.248Z,8.8
2023-12-26T17:06:18.540Z,9.1
2023-12-26T17:07:32.833Z,7.7
2023-12-26T17:08:47.126Z,11.2
2023-12-26T17:10:01.418Z,9.3